createdAt,value
2023-05-17T00:01:48.229Z,7.66
2023-05-17T00:04:16.590Z,7.65
2023-05-17T00:06:44.614Z,7.62
2023-05-17T00:09:12.463Z,7.58
2023-05-17T00:11:40.511Z,7.57
2023-05-17T00:14:08.377Z,7.56
2023-05-17T00:16:37.565Z,7.55
2023-05-17T00:19:05.558Z,7.56
2023-05-17T00:21:33.492Z,7.54
2023-05-17T00:24:01.393Z,7.51
2023-05-17T00:26:29.335Z,7.48
2023-05-17T00:28:57.214Z,7.37
2023-05-17T00:31:25.110Z,7.34
2023-05-17T00:33:54.366Z,7.29
2023-05-17T00:36:22.698Z,7.31
2023-05-17T00:38:50.565Z,7.32
2023-05-17T00:41:18.585Z,7.30
2023-05-17T00:43:47.162Z,7.24
2023-05-17T00:46:16.158Z,7.26
2023-05-17T00:48:44.414Z,7.25
2023-05-17T00:51:16.200Z,7.28
2023-05-17T00:53:45.096Z,7.28
2023-05-17T00:56:13.194Z,7.26
2023-05-17T00:58:41.767Z,7.16
2023-05-17T01:01:09.735Z,7.14
2023-05-17T01:03:38.168Z,7.15
2023-05-17T01:06:07.239Z,7.10
2023-05-17T01:08:37.940Z,7.07
2023-05-17T01:11:15.415Z,7.05
2023-05-17T01:13:53.221Z,7.04
2023-05-17T01:16:28.337Z,6.97
2023-05-17T01:19:04.003Z,6.95
2023-05-17T01:21:50.297Z,6.96
2023-05-17T01:24:28.340Z,6.95
2023-05-17T01:26:59.970Z,6.93
2023-05-17T01:29:30.102Z,6.91
2023-05-17T01:32:00.731Z,6.92
2023-05-17T01:34:29.879Z,6.86
2023-05-17T01:36:58.400Z,6.81
2023-05-17T01:39:26.725Z,6.86
2023-05-17T01:42:06.215Z,6.77
2023-05-17T01:44:41.693Z,6.73
2023-05-17T01:47:15.002Z,6.69
2023-05-17T01:49:49.392Z,6.61
2023-05-17T01:52:24.239Z,6.60
2023-05-17T01:54:57.308Z,6.52
2023-05-17T01:57:30.659Z,6.47
2023-05-17T02:00:01.386Z,6.46
2023-05-17T02:02:31.060Z,6.46
2023-05-17T02:04:59.418Z,6.47
2023-05-17T02:07:27.530Z,6.38
2023-05-17T02:09:56.688Z,6.34
2023-05-17T02:12:26.104Z,6.32
2023-05-17T02:14:54.025Z,6.26
2023-05-17T02:17:23.152Z,6.24
2023-05-17T02:19:51.982Z,6.21
2023-05-17T02:22:19.834Z,6.19
2023-05-17T02:24:48.941Z,6.14
2023-05-17T02:27:16.879Z,6.11
2023-05-17T02:29:46.114Z,6.10
2023-05-17T02:32:14.012Z,6.09
2023-05-17T02:34:41.851Z,6.06
2023-05-17T02:37:09.750Z,6.01
2023-05-17T02:39:37.999Z,6.00
2023-05-17T02:42:07.811Z,5.95
2023-05-17T02:44:35.760Z,5.98
2023-05-17T02:47:05.419Z,5.93
2023-05-17T02:49:33.379Z,5.90
2023-05-17T02:52:02.330Z,5.89
2023-05-17T02:54:30.908Z,5.84
2023-05-17T02:56:58.824Z,5.76
2023-05-17T02:59:26.859Z,5.75
2023-05-17T03:01:54.960Z,5.71
2023-05-17T03:04:24.979Z,5.67
2023-05-17T03:06:53.078Z,5.67
2023-05-17T03:09:21.396Z,5.63
2023-05-17T03:11:51.123Z,5.62
2023-05-17T03:14:23.875Z,5.58
2023-05-17T03:16:51.812Z,5.54
2023-05-17T03:19:20.000Z,5.50
2023-05-17T03:21:49.396Z,5.54
2023-05-17T03:24:17.386Z,5.54
2023-05-17T03:26:45.473Z,5.51
2023-05-17T03:29:14.266Z,5.45
2023-05-17T03:31:44.827Z,5.41
2023-05-17T03:34:13.476Z,5.42
2023-05-17T03:36:41.807Z,5.39
2023-05-17T03:39:11.262Z,5.35
2023-05-17T03:41:42.216Z,5.24
2023-05-17T03:44:10.671Z,5.21
2023-05-17T03:46:38.914Z,5.23
2023-05-17T03:49:06.950Z,5.24
2023-05-17T03:51:35.960Z,5.20
2023-05-17T03:54:03.924Z,5.26
2023-05-17T03:56:33.352Z,5.19
2023-05-17T03:59:01.282Z,5.16
2023-05-17T04:01:29.310Z,5.13
2023-05-17T04:03:57.382Z,5.12
2023-05-17T04:06:25.586Z,5.08
2023-05-17T04:08:55.134Z,5.07
2023-05-17T04:11:26.598Z,5.07
2023-05-17T04:13:57.498Z,5.06
2023-05-17T04:16:25.675Z,5.12
2023-05-17T04:18:54.522Z,5.06
2023-05-17T04:21:22.546Z,5.11
2023-05-17T04:23:51.687Z,5.09
2023-05-17T04:26:20.480Z,5.12
2023-05-17T04:28:48.935Z,5.11
2023-05-17T04:31:18.835Z,5.19
2023-05-17T04:33:47.213Z,5.20
2023-05-17T04:36:15.248Z,5.13
2023-05-17T04:38:43.885Z,5.24
2023-05-17T04:41:16.193Z,5.24
2023-05-17T04:43:44.694Z,5.29
2023-05-17T04:46:22.365Z,5.32
2023-05-17T04:48:51.201Z,5.35
2023-05-17T04:51:19.527Z,5.37
2023-05-17T04:53:48.183Z,5.37
2023-05-17T04:56:19.713Z,5.40
2023-05-17T04:58:47.633Z,5.41
2023-05-17T05:01:15.787Z,5.46
2023-05-17T05:03:45.121Z,5.49
2023-05-17T05:06:16.185Z,5.56
2023-05-17T05:08:44.572Z,5.56
2023-05-17T05:11:13.865Z,5.61
2023-05-17T05:13:42.429Z,5.65
2023-05-17T05:16:10.469Z,5.67
2023-05-17T05:18:40.058Z,5.73
2023-05-17T05:21:09.813Z,5.78
2023-05-17T05:23:39.565Z,5.85
2023-05-17T05:26:07.614Z,5.83
2023-05-17T05:28:35.599Z,5.90
2023-05-17T05:31:03.988Z,5.95
2023-05-17T05:33:40.588Z,6.04
2023-05-17T05:36:10.518Z,6.08
2023-05-17T05:38:40.813Z,6.07
2023-05-17T05:41:08.839Z,6.25
2023-05-17T05:43:38.957Z,6.28
2023-05-17T05:46:08.043Z,6.26
2023-05-17T05:48:39.450Z,6.38
2023-05-17T05:51:08.194Z,6.46
2023-05-17T05:53:41.385Z,6.53
2023-05-17T05:56:11.302Z,6.62
2023-05-17T05:58:39.562Z,6.69
2023-05-17T06:01:08.223Z,6.73
2023-05-17T06:03:36.133Z,6.77
2023-05-17T06:06:04.325Z,6.87
2023-05-17T06:08:32.189Z,6.83
2023-05-17T06:11:01.410Z,6.99
2023-05-17T06:13:29.314Z,7.05
2023-05-17T06:15:57.668Z,7.22
2023-05-17T06:18:25.595Z,7.30
2023-05-17T06:20:53.654Z,7.33
2023-05-17T06:23:21.817Z,7.36
2023-05-17T06:25:49.714Z,7.40
2023-05-17T06:28:19.247Z,7.40
2023-05-17T06:30:47.662Z,7.53
2023-05-17T06:33:15.612Z,7.68
2023-05-17T06:35:55.476Z,7.80
2023-05-17T06:38:24.699Z,7.77
2023-05-17T06:40:53.846Z,7.79
2023-05-17T06:43:23.490Z,7.72
2023-05-17T06:45:51.770Z,7.76
2023-05-17T06:48:19.657Z,7.83
2023-05-17T06:50:47.662Z,8.04
2023-05-17T06:53:15.626Z,8.12
2023-05-17T06:55:43.775Z,8.11
2023-05-17T06:58:11.621Z,8.29
2023-05-17T07:00:40.838Z,8.27
2023-05-17T07:03:08.827Z,8.32
2023-05-17T07:05:36.934Z,8.28
2023-05-17T07:08:05.347Z,8.29
2023-05-17T07:10:33.240Z,8.27
2023-05-17T07:13:01.274Z,8.55
2023-05-17T07:15:29.511Z,8.52
2023-05-17T07:17:59.421Z,8.50
2023-05-17T07:20:27.427Z,8.62
2023-05-17T07:22:56.301Z,8.65
2023-05-17T07:25:24.152Z,8.78
2023-05-17T07:27:52.300Z,8.83
2023-05-17T07:30:20.172Z,8.88
2023-05-17T07:32:48.157Z,9.00
2023-05-17T07:35:19.270Z,8.97
2023-05-17T07:37:49.020Z,8.96
2023-05-17T07:40:17.014Z,8.97
2023-05-17T07:42:44.832Z,9.03
2023-05-17T07:45:12.938Z,9.07
2023-05-17T07:47:40.908Z,8.91
2023-05-17T07:50:09.269Z,8.92
2023-05-17T07:52:38.611Z,9.05
2023-05-17T07:55:07.832Z,9.13
2023-05-17T07:57:35.787Z,9.29
2023-05-17T08:00:03.875Z,9.45
2023-05-17T08:02:39.385Z,9.50
2023-05-17T08:05:08.487Z,9.55
2023-05-17T08:07:45.408Z,9.52
2023-05-17T08:10:13.267Z,9.72
2023-05-17T08:12:41.337Z,9.58
2023-05-17T08:15:09.797Z,9.69
2023-05-17T08:17:37.871Z,9.59
2023-05-17T08:20:08.176Z,9.74
2023-05-17T08:22:36.549Z,9.72
2023-05-17T08:25:06.390Z,9.67
2023-05-17T08:27:34.500Z,9.76
2023-05-17T08:30:02.488Z,9.87
2023-05-17T08:32:31.121Z,9.94
2023-05-17T08:34:59.223Z,9.97
2023-05-17T08:37:27.060Z,10.00
2023-05-17T08:39:55.034Z,9.73
2023-05-17T08:42:25.733Z,9.61
2023-05-17T08:44:54.900Z,9.67
2023-05-17T08:47:29.684Z,9.83
2023-05-17T08:50:00.944Z,9.98
2023-05-17T08:52:31.852Z,10.25
2023-05-17T08:55:01.040Z,10.32
2023-05-17T08:57:31.595Z,10.14
2023-05-17T09:00:00.414Z,10.09
2023-05-17T09:02:31.730Z,10.22
2023-05-17T09:05:00.958Z,10.21
2023-05-17T09:07:28.912Z,9.92
2023-05-17T09:09:56.846Z,10.06
2023-05-17T09:12:25.826Z,9.94
2023-05-17T09:14:55.118Z,9.80
2023-05-17T09:17:23.203Z,9.73
2023-05-17T09:19:52.050Z,9.93
2023-05-17T09:22:21.488Z,10.07
2023-05-17T09:24:51.305Z,10.10
2023-05-17T09:27:19.768Z,10.21
2023-05-17T09:29:48.371Z,10.15
2023-05-17T09:32:18.790Z,10.29
2023-05-17T09:34:48.326Z,10.43
2023-05-17T09:37:18.204Z,10.63
2023-05-17T09:39:48.390Z,10.90
2023-05-17T09:42:17.037Z,10.93
2023-05-17T09:44:53.318Z,11.00
2023-05-17T09:47:26.677Z,11.05
2023-05-17T09:49:56.474Z,11.30
2023-05-17T09:52:25.656Z,11.34
2023-05-17T09:54:54.704Z,11.46
2023-05-17T09:57:22.957Z,11.41
2023-05-17T09:59:51.621Z,11.32
2023-05-17T10:02:23.987Z,11.30
2023-05-17T10:04:54.017Z,11.36
2023-05-17T10:07:22.591Z,11.48
2023-05-17T10:09:51.076Z,11.48
2023-05-17T10:12:23.693Z,11.37
2023-05-17T10:14:55.923Z,11.21
2023-05-17T10:17:24.455Z,11.29
2023-05-17T10:19:54.586Z,11.18
2023-05-17T10:22:24.033Z,11.30
2023-05-17T10:24:52.892Z,11.29
2023-05-17T10:27:21.977Z,11.30
2023-05-17T10:29:51.271Z,11.59
2023-05-17T10:32:23.358Z,11.78
2023-05-17T10:35:02.077Z,11.95
2023-05-17T10:37:38.011Z,12.05
2023-05-17T10:40:07.293Z,12.13
2023-05-17T10:42:35.934Z,12.16
2023-05-17T10:45:04.210Z,12.28
2023-05-17T10:47:35.657Z,12.29
2023-05-17T10:50:12.996Z,12.36
2023-05-17T10:52:47.969Z,12.45
2023-05-17T10:55:20.309Z,12.37
2023-05-17T10:58:09.649Z,12.44
2023-05-17T11:00:41.166Z,12.30
2023-05-17T11:03:13.925Z,11.94
2023-05-17T11:05:45.656Z,12.36
2023-05-17T11:08:15.799Z,12.43
2023-05-17T11:11:20.751Z,12.38
2023-05-17T11:13:53.802Z,12.26
2023-05-17T11:16:29.064Z,12.25
2023-05-17T11:19:07.360Z,12.16
2023-05-17T11:21:36.931Z,11.97
2023-05-17T11:24:05.454Z,11.89
2023-05-17T11:26:35.580Z,12.03
2023-05-17T11:29:07.778Z,12.16
2023-05-17T11:31:37.432Z,12.11
2023-05-17T11:34:06.071Z,12.24
2023-05-17T11:36:52.382Z,12.35
2023-05-17T11:39:22.119Z,12.34
2023-05-17T11:41:51.987Z,12.17
2023-05-17T11:44:26.109Z,12.35
2023-05-17T11:47:03.057Z,12.16
2023-05-17T11:49:36.307Z,12.14
2023-05-17T11:52:07.018Z,12.07
2023-05-17T11:54:35.339Z,11.98
2023-05-17T11:57:04.162Z,11.97
2023-05-17T11:59:38.406Z,11.85
2023-05-17T12:02:06.660Z,11.92
2023-05-17T12:04:37.874Z,11.85
2023-05-17T12:07:10.532Z,11.63
2023-05-17T12:09:40.329Z,11.58
2023-05-17T12:12:08.997Z,11.70
2023-05-17T12:14:37.175Z,11.81
2023-05-17T12:17:09.556Z,11.88
2023-05-17T12:19:37.949Z,11.88
2023-05-17T12:22:13.398Z,11.77
2023-05-17T12:24:42.634Z,11.94
2023-05-17T12:27:11.458Z,12.22
2023-05-17T12:29:39.868Z,12.15
2023-05-17T12:32:10.821Z,12.16
2023-05-17T12:34:39.360Z,12.11
2023-05-17T12:37:11.023Z,12.32
2023-05-17T12:39:41.398Z,12.42
2023-05-17T12:42:10.666Z,12.48
2023-05-17T12:44:39.068Z,12.47
2023-05-17T12:47:07.686Z,12.41
2023-05-17T12:49:40.076Z,12.47
2023-05-17T12:52:08.361Z,12.30
2023-05-17T12:54:36.301Z,12.35
2023-05-17T12:57:13.983Z,12.41
2023-05-17T12:59:49.603Z,12.54
2023-05-17T13:02:18.449Z,12.16
2023-05-17T13:04:47.429Z,12.30
2023-05-17T13:07:23.748Z,12.23
2023-05-17T13:09:52.004Z,12.51
2023-05-17T13:12:22.677Z,12.50
2023-05-17T13:14:52.492Z,12.47
2023-05-17T13:17:25.268Z,12.50
2023-05-17T13:19:53.405Z,12.45
2023-05-17T13:22:21.325Z,12.30
2023-05-17T13:24:49.247Z,12.37
2023-05-17T13:27:17.238Z,12.26
2023-05-17T13:29:46.923Z,12.31
2023-05-17T13:32:15.685Z,12.35
2023-05-17T13:34:43.636Z,12.17
2023-05-17T13:37:12.775Z,12.35
2023-05-17T13:39:41.710Z,12.35
2023-05-17T13:42:10.759Z,12.43
2023-05-17T13:44:39.306Z,12.49
2023-05-17T13:47:08.715Z,12.46
2023-05-17T13:49:37.247Z,12.47
2023-05-17T13:52:08.501Z,12.45
2023-05-17T13:54:36.851Z,12.26
2023-05-17T13:57:05.191Z,12.29
2023-05-17T13:59:33.223Z,12.38
2023-05-17T14:02:01.279Z,12.19
2023-05-17T14:04:30.572Z,12.01
2023-05-17T14:06:58.561Z,12.14
2023-05-17T14:09:26.437Z,12.18
2023-05-17T14:11:54.348Z,12.11
2023-05-17T14:14:25.046Z,12.08
2023-05-17T14:16:52.934Z,12.20
2023-05-17T14:19:21.162Z,12.33
2023-05-17T14:21:51.175Z,12.15
2023-05-17T14:24:19.100Z,12.27
2023-05-17T14:26:47.093Z,12.10
2023-05-17T14:29:14.935Z,12.20
2023-05-17T14:31:43.272Z,12.04
2023-05-17T14:34:11.250Z,11.92
2023-05-17T14:36:39.386Z,12.00
2023-05-17T14:39:10.073Z,12.10
2023-05-17T14:41:39.245Z,11.99
2023-05-17T14:44:07.281Z,12.03
2023-05-17T14:46:35.416Z,12.05
2023-05-17T14:49:03.371Z,11.96
2023-05-17T14:51:31.365Z,11.97
2023-05-17T14:53:59.440Z,12.10
2023-05-17T14:56:28.756Z,12.05
2023-05-17T14:58:56.666Z,11.97
2023-05-17T15:01:24.575Z,12.01
2023-05-17T15:03:52.543Z,12.05
2023-05-17T15:06:24.859Z,12.11
2023-05-17T15:08:52.788Z,11.93
2023-05-17T15:11:21.883Z,11.96
2023-05-17T15:13:51.182Z,11.78
2023-05-17T15:16:19.337Z,11.84
2023-05-17T15:18:47.659Z,11.83
2023-05-17T15:21:17.626Z,11.74
2023-05-17T15:23:46.035Z,11.73
2023-05-17T15:26:14.143Z,11.76
2023-05-17T15:28:42.125Z,11.82
2023-05-17T15:31:11.613Z,11.65
2023-05-17T15:33:40.434Z,11.47
2023-05-17T15:36:09.752Z,11.57
2023-05-17T15:38:39.753Z,11.56
2023-05-17T15:41:09.266Z,11.43
2023-05-17T15:43:37.212Z,11.51
2023-05-17T15:46:05.215Z,11.55
2023-05-17T15:48:35.938Z,11.69
2023-05-17T15:51:04.168Z,11.64
2023-05-17T15:53:32.250Z,11.62
2023-05-17T15:56:00.080Z,11.50
2023-05-17T15:58:28.676Z,11.55
2023-05-17T16:00:56.755Z,11.59
2023-05-17T16:03:24.754Z,11.61
2023-05-17T16:05:54.064Z,11.64
2023-05-17T16:08:23.218Z,11.71
2023-05-17T16:10:51.197Z,11.70
2023-05-17T16:13:19.217Z,11.62
2023-05-17T16:15:47.101Z,11.75
2023-05-17T16:18:15.429Z,11.81
2023-05-17T16:20:43.524Z,11.88
2023-05-17T16:23:13.759Z,11.88
2023-05-17T16:25:41.687Z,11.93
2023-05-17T16:28:09.586Z,11.92
2023-05-17T16:30:38.217Z,11.85
2023-05-17T16:33:08.385Z,11.83
2023-05-17T16:35:36.579Z,11.90
2023-05-17T16:38:04.506Z,11.85
2023-05-17T16:40:33.878Z,11.88
2023-05-17T16:43:02.272Z,11.92
2023-05-17T16:45:30.388Z,11.97
2023-05-17T16:47:58.566Z,12.08
2023-05-17T16:50:26.729Z,12.01
2023-05-17T16:52:54.693Z,12.04
2023-05-17T16:55:22.847Z,12.01
2023-05-17T16:57:52.430Z,12.00
2023-05-17T17:00:21.459Z,12.09
2023-05-17T17:02:49.454Z,12.12
2023-05-17T17:05:17.751Z,12.04
2023-05-17T17:07:47.536Z,12.08
2023-05-17T17:10:15.463Z,12.23
2023-05-17T17:12:43.452Z,12.14
2023-05-17T17:15:13.058Z,12.14
2023-05-17T17:17:41.114Z,12.17
2023-05-17T17:20:10.386Z,12.02
2023-05-17T17:22:38.351Z,11.98
2023-05-17T17:25:07.500Z,11.91
2023-05-17T17:27:35.874Z,11.99
2023-05-17T17:30:04.158Z,11.98
2023-05-17T17:32:33.670Z,12.01
2023-05-17T17:35:01.853Z,11.85
2023-05-17T17:37:29.860Z,11.93
2023-05-17T17:39:57.736Z,11.93
2023-05-17T17:42:25.678Z,11.90
2023-05-17T17:44:54.994Z,11.84
2023-05-17T17:47:23.291Z,11.83
2023-05-17T17:49:52.633Z,11.77
2023-05-17T17:52:20.560Z,11.75
2023-05-17T17:54:48.685Z,11.73
2023-05-17T17:57:18.861Z,11.75
2023-05-17T17:59:46.814Z,11.73
2023-05-17T18:02:14.722Z,11.68
2023-05-17T18:04:42.639Z,11.62
2023-05-17T18:07:12.755Z,11.62
2023-05-17T18:09:40.649Z,11.60
2023-05-17T18:12:09.252Z,11.53
2023-05-17T18:14:37.248Z,11.59
2023-05-17T18:17:05.439Z,11.52
2023-05-17T18:19:33.317Z,11.53
2023-05-17T18:22:01.204Z,11.49
2023-05-17T18:24:31.642Z,11.51
2023-05-17T18:26:59.525Z,11.46
2023-05-17T18:29:27.550Z,11.42
2023-05-17T18:31:55.722Z,11.40
2023-05-17T18:34:25.615Z,11.40
2023-05-17T18:36:53.535Z,11.34
2023-05-17T18:39:21.452Z,11.30
2023-05-17T18:41:51.154Z,11.27
2023-05-17T18:44:20.069Z,11.20
2023-05-17T18:46:48.680Z,11.18
2023-05-17T18:49:17.268Z,11.13
2023-05-17T18:51:45.377Z,11.07
2023-05-17T18:54:13.302Z,11.03
2023-05-17T18:56:41.313Z,10.93
2023-05-17T18:59:10.647Z,10.86
2023-05-17T19:01:38.740Z,10.92
2023-05-17T19:04:06.785Z,10.84
2023-05-17T19:06:35.043Z,10.75
2023-05-17T19:09:03.007Z,10.73
2023-05-17T19:11:31.494Z,10.65
2023-05-17T19:13:59.565Z,10.59
2023-05-17T19:16:28.808Z,10.50
2023-05-17T19:18:56.840Z,10.43
2023-05-17T19:21:24.783Z,10.41
2023-05-17T19:23:52.708Z,10.33
2023-05-17T19:26:21.612Z,10.29
2023-05-17T19:28:49.444Z,10.18
2023-05-17T19:31:17.416Z,10.15
2023-05-17T19:33:46.691Z,10.05
2023-05-17T19:36:14.609Z,9.97
2023-05-17T19:38:42.578Z,9.91
2023-05-17T19:41:10.508Z,9.88
2023-05-17T19:43:38.460Z,9.85
2023-05-17T19:46:10.469Z,9.74
2023-05-17T19:48:39.491Z,9.69
2023-05-17T19:51:08.666Z,9.68
2023-05-17T19:53:50.775Z,9.64
2023-05-17T19:56:21.384Z,9.58
2023-05-17T19:58:49.328Z,9.51
2023-05-17T20:01:17.334Z,9.44
2023-05-17T20:03:45.987Z,9.38
2023-05-17T20:06:15.379Z,9.36
2023-05-17T20:08:43.514Z,9.26
2023-05-17T20:11:11.557Z,9.21
2023-05-17T20:13:40.432Z,9.15
2023-05-17T20:16:12.593Z,9.05
2023-05-17T20:18:42.580Z,9.04
2023-05-17T20:21:11.339Z,8.98
2023-05-17T20:23:40.661Z,8.91
2023-05-17T20:26:08.553Z,8.87
2023-05-17T20:28:36.556Z,8.81
2023-05-17T20:31:04.525Z,8.76
2023-05-17T20:33:32.365Z,8.71
2023-05-17T20:36:00.251Z,8.67
2023-05-17T20:38:28.184Z,8.63
2023-05-17T20:40:58.270Z,8.59
2023-05-17T20:43:28.782Z,8.54
2023-05-17T20:45:57.001Z,8.47
2023-05-17T20:48:24.905Z,8.44
2023-05-17T20:50:52.729Z,8.32
2023-05-17T20:53:20.648Z,8.21
2023-05-17T20:55:49.360Z,8.17
2023-05-17T20:58:18.693Z,8.12
2023-05-17T21:00:46.548Z,8.11
2023-05-17T21:03:14.489Z,8.07
2023-05-17T21:05:42.776Z,8.00
2023-05-17T21:08:12.878Z,7.97
2023-05-17T21:10:42.814Z,7.84
2023-05-17T21:13:12.467Z,7.85
2023-05-17T21:15:41.770Z,7.77
2023-05-17T21:18:11.019Z,7.76
2023-05-17T21:20:39.489Z,7.69
2023-05-17T21:23:07.326Z,7.67
2023-05-17T21:25:35.802Z,7.54
2023-05-17T21:28:03.754Z,7.48
2023-05-17T21:30:31.904Z,7.43
2023-05-17T21:33:01.383Z,7.37
2023-05-17T21:35:29.394Z,7.38
2023-05-17T21:37:57.591Z,7.37
2023-05-17T21:40:25.472Z,7.30
2023-05-17T21:42:53.410Z,7.26
2023-05-17T21:45:21.408Z,7.25
2023-05-17T21:47:49.370Z,7.24
2023-05-17T21:50:18.763Z,7.17
2023-05-17T21:52:46.746Z,7.12
2023-05-17T21:55:14.653Z,7.10
2023-05-17T21:57:42.706Z,7.04
2023-05-17T22:00:12.709Z,6.98
2023-05-17T22:02:41.210Z,6.95
2023-05-17T22:05:09.707Z,6.86
2023-05-17T22:07:39.507Z,6.81
2023-05-17T22:10:09.800Z,6.81
2023-05-17T22:12:38.429Z,6.80
2023-05-17T22:15:07.547Z,6.74
2023-05-17T22:17:47.979Z,6.71
2023-05-17T22:20:23.471Z,6.67
2023-05-17T22:22:52.999Z,6.63
2023-05-17T22:25:21.136Z,6.57
2023-05-17T22:27:49.061Z,6.55
2023-05-17T22:30:17.034Z,6.49
2023-05-17T22:32:45.033Z,6.42
2023-05-17T22:35:13.039Z,6.43
2023-05-17T22:37:42.914Z,6.38
2023-05-17T22:40:12.904Z,6.31
2023-05-17T22:42:41.706Z,6.25
2023-05-17T22:45:12.655Z,6.28
2023-05-17T22:47:42.368Z,6.27
2023-05-17T22:50:14.591Z,6.23
2023-05-17T22:52:42.843Z,6.19
2023-05-17T22:55:12.308Z,6.23
2023-05-17T22:57:40.543Z,6.21
2023-05-17T23:00:11.417Z,6.21
2023-05-17T23:02:39.599Z,6.18
2023-05-17T23:05:08.333Z,6.15
2023-05-17T23:07:38.440Z,6.12
2023-05-17T23:10:09.533Z,6.14
2023-05-17T23:12:38.877Z,6.11
2023-05-17T23:15:08.036Z,6.10
2023-05-17T23:17:36.515Z,6.03
2023-05-17T23:20:09.907Z,5.97
2023-05-17T23:22:38.897Z,5.92
2023-05-17T23:25:07.861Z,5.87
2023-05-17T23:27:36.368Z,5.82
2023-05-17T23:30:07.393Z,5.85
2023-05-17T23:32:35.450Z,5.81
2023-05-17T23:35:04.729Z,5.75
2023-05-17T23:37:33.256Z,5.73
2023-05-17T23:40:01.240Z,5.64
2023-05-17T23:42:29.729Z,5.60
2023-05-17T23:44:57.762Z,5.59
2023-05-17T23:47:28.087Z,5.58
2023-05-17T23:49:56.575Z,5.48
2023-05-17T23:52:24.514Z,5.46
2023-05-17T23:54:57.255Z,5.45
2023-05-17T23:57:25.663Z,5.47
2023-05-17T23:59:53.560Z,5.49
